sensor_id;sensor_type;location;lat;lon;timestamp;pressure;altitude;pressure_sealevel;temperature;humidity
31669;BME280;19201;55.712;37.490;2022-09-03T00:04:39;100205.06;;;6.81;80.69
31669;BME280;19201;55.712;37.490;2022-09-03T00:07:17;100200.47;;;6.81;80.58
31669;BME280;19201;55.712;37.490;2022-09-03T00:09:50;100201.97;;;6.77;81.47
31669;BME280;19201;55.712;37.490;2022-09-03T00:12:23;100210.22;;;6.70;81.55
31669;BME280;19201;55.712;37.490;2022-09-03T00:17:28;100216.91;;;6.68;81.97
31669;BME280;19201;55.712;37.490;2022-09-03T00:20:03;100216.91;;;6.68;82.14
31669;BME280;19201;55.712;37.490;2022-09-03T00:22:50;100225.38;;;6.71;82.25
31669;BME280;19201;55.712;37.490;2022-09-03T00:25:24;100219.47;;;6.63;82.24
31669;BME280;19201;55.712;37.490;2022-09-03T00:27:53;100223.25;;;6.62;82.73
31669;BME280;19201;55.712;37.490;2022-09-03T00:30:21;100224.38;;;6.54;82.63
31669;BME280;19201;55.712;37.490;2022-09-03T00:33:02;100224.63;;;6.52;82.27
31669;BME280;19201;55.712;37.490;2022-09-03T00:35:32;100234.78;;;6.69;79.48
31669;BME280;19201;55.712;37.490;2022-09-03T00:38:00;100237.91;;;6.54;81.56
31669;BME280;19201;55.712;37.490;2022-09-03T00:54:06;100247.56;;;6.62;81.53
31669;BME280;19201;55.712;37.490;2022-09-03T00:57:07;100251.31;;;6.60;81.64
31669;BME280;19201;55.712;37.490;2022-09-03T01:13:32;100262.69;;;6.51;82.17
31669;BME280;19201;55.712;37.490;2022-09-03T01:19:08;100258.56;;;6.48;82.81
31669;BME280;19201;55.712;37.490;2022-09-03T01:29:59;100260.63;;;6.34;82.90
31669;BME280;19201;55.712;37.490;2022-09-03T01:53:18;100286.56;;;6.05;83.87
31669;BME280;19201;55.712;37.490;2022-09-03T02:01:51;100304.31;;;5.94;84.92
31669;BME280;19201;55.712;37.490;2022-09-03T02:04:22;100303.69;;;5.92;85.01
31669;BME280;19201;55.712;37.490;2022-09-03T02:06:53;100309.94;;;5.93;84.99
31669;BME280;19201;55.712;37.490;2022-09-03T02:09:19;100310.41;;;5.89;85.28
31669;BME280;19201;55.712;37.490;2022-09-03T02:12:02;100322.19;;;5.95;85.04
31669;BME280;19201;55.712;37.490;2022-09-03T02:14:30;100315.56;;;5.91;84.89
31669;BME280;19201;55.712;37.490;2022-09-03T02:16:58;100325.50;;;5.97;84.87
31669;BME280;19201;55.712;37.490;2022-09-03T02:19:26;100322.19;;;5.95;84.79
31669;BME280;19201;55.712;37.490;2022-09-03T02:21:53;100320.97;;;5.91;84.92
31669;BME280;19201;55.712;37.490;2022-09-03T02:24:20;100318.72;;;5.88;85.27
31669;BME280;19201;55.712;37.490;2022-09-03T02:26:46;100316.03;;;5.88;85.46
31669;BME280;19201;55.712;37.490;2022-09-03T02:29:12;100325.97;;;5.87;85.42
31669;BME280;19201;55.712;37.490;2022-09-03T02:31:38;100320.81;;;5.86;85.42
31669;BME280;19201;55.712;37.490;2022-09-03T02:34:04;100322.69;;;5.85;85.32
31669;BME280;19201;55.712;37.490;2022-09-03T02:36:33;100330.91;;;5.90;85.47
31669;BME280;19201;55.712;37.490;2022-09-03T02:39:00;100326.66;;;5.83;85.33
31669;BME280;19201;55.712;37.490;2022-09-03T02:41:26;100328.38;;;5.77;85.07
31669;BME280;19201;55.712;37.490;2022-09-03T02:44:02;100326.66;;;5.83;85.11
31669;BME280;19201;55.712;37.490;2022-09-03T02:46:43;100329.56;;;5.81;84.89
31669;BME280;19201;55.712;37.490;2022-09-03T02:49:09;100329.63;;;5.74;85.18
31669;BME280;19201;55.712;37.490;2022-09-03T02:51:40;100330.03;;;5.78;85.39
31669;BME280;19201;55.712;37.490;2022-09-03T02:54:07;100331.06;;;5.77;85.68
31669;BME280;19201;55.712;37.490;2022-09-03T02:56:33;100331.69;;;5.79;85.58
31669;BME280;19201;55.712;37.490;2022-09-03T02:59:00;100332.28;;;5.81;85.80
31669;BME280;19201;55.712;37.490;2022-09-03T03:01:26;100331.69;;;5.79;85.99
31669;BME280;19201;55.712;37.490;2022-09-03T03:03:52;100337.00;;;5.86;85.75
31669;BME280;19201;55.712;37.490;2022-09-03T03:06:18;100342.19;;;5.87;85.20
31669;BME280;19201;55.712;37.490;2022-09-03T03:08:48;100346.75;;;5.87;85.53
31669;BME280;19201;55.712;37.490;2022-09-03T03:11:15;100347.56;;;5.87;85.12
31669;BME280;19201;55.712;37.490;2022-09-03T03:13:43;100354.25;;;5.85;85.05
31669;BME280;19201;55.712;37.490;2022-09-03T03:16:09;100351.53;;;5.85;85.46
31669;BME280;19201;55.712;37.490;2022-09-03T03:18:35;100353.59;;;5.89;85.70
31669;BME280;19201;55.712;37.490;2022-09-03T03:21:08;100356.19;;;5.96;85.55
31669;BME280;19201;55.712;37.490;2022-09-03T03:23:34;100355.00;;;5.92;85.50
31669;BME280;19201;55.712;37.490;2022-09-03T03:26:05;100359.13;;;5.95;85.51
31669;BME280;19201;55.712;37.490;2022-09-03T03:28:31;100355.00;;;5.92;85.07
31669;BME280;19201;55.712;37.490;2022-09-03T03:31:07;100354.28;;;6.03;84.91
31669;BME280;19201;55.712;37.490;2022-09-03T03:33:34;100359.91;;;6.02;84.83
31669;BME280;19201;55.712;37.490;2022-09-03T03:36:07;100363.38;;;6.09;84.95
31669;BME280;19201;55.712;37.490;2022-09-03T03:38:34;100369.81;;;6.08;84.81
31669;BME280;19201;55.712;37.490;2022-09-03T03:41:06;100371.53;;;6.21;84.61
31669;BME280;19201;55.712;37.490;2022-09-03T03:43:32;100370.56;;;6.15;84.56
31669;BME280;19201;55.712;37.490;2022-09-03T03:45:58;100375.31;;;6.20;84.37
31669;BME280;19201;55.712;37.490;2022-09-03T03:48:24;100376.31;;;6.25;84.15
31669;BME280;19201;55.712;37.490;2022-09-03T03:50:50;100375.00;;;6.28;84.25
31669;BME280;19201;55.712;37.490;2022-09-03T03:53:15;100376.19;;;6.32;84.10
31669;BME280;19201;55.712;37.490;2022-09-03T03:55:41;100375.97;;;6.34;84.21
31669;BME280;19201;55.712;37.490;2022-09-03T03:58:07;100370.34;;;6.35;83.90
31669;BME280;19201;55.712;37.490;2022-09-03T04:00:32;100368.63;;;6.41;83.91
31669;BME280;19201;55.712;37.490;2022-09-03T04:03:03;100368.16;;;6.44;84.08
31669;BME280;19201;55.712;37.490;2022-09-03T04:05:29;100372.28;;;6.47;83.83
31669;BME280;19201;55.712;37.490;2022-09-03T04:07:54;100382.41;;;6.51;83.35
31669;BME280;19201;55.712;37.490;2022-09-03T04:10:20;100388.22;;;6.55;83.36
31669;BME280;19201;55.712;37.490;2022-09-03T04:12:46;100390.00;;;6.61;82.83
31669;BME280;19201;55.712;37.490;2022-09-03T04:15:12;100386.16;;;6.69;82.56
31669;BME280;19201;55.712;37.490;2022-09-03T04:17:37;100377.84;;;6.70;82.51
31669;BME280;19201;55.712;37.490;2022-09-03T04:20:04;100388.78;;;6.75;82.15
31669;BME280;19201;55.712;37.490;2022-09-03T04:22:30;100389.38;;;6.77;82.16
31669;BME280;19201;55.712;37.490;2022-09-03T04:24:55;100392.22;;;6.83;82.18
31669;BME280;19201;55.712;37.490;2022-09-03T04:27:21;100390.94;;;6.85;81.92
31669;BME280;19201;55.712;37.490;2022-09-03T04:29:46;100394.84;;;6.89;81.77
31669;BME280;19201;55.712;37.490;2022-09-03T04:32:12;100394.94;;;6.94;81.78
31669;BME280;19201;55.712;37.490;2022-09-03T04:34:56;100402.53;;;7.04;81.54
31669;BME280;19201;55.712;37.490;2022-09-03T04:37:21;100397.50;;;7.08;81.19
31669;BME280;19201;55.712;37.490;2022-09-03T04:39:47;100398.22;;;7.15;81.03
31669;BME280;19201;55.712;37.490;2022-09-03T04:42:12;100401.28;;;7.19;80.71
31669;BME280;19201;55.712;37.490;2022-09-03T04:44:38;100405.19;;;7.23;80.38
31669;BME280;19201;55.712;37.490;2022-09-03T04:47:05;100405.75;;;7.25;80.02
31669;BME280;19201;55.712;37.490;2022-09-03T04:49:31;100396.13;;;7.29;80.00
31669;BME280;19201;55.712;37.490;2022-09-03T04:51:56;100402.50;;;7.35;79.37
31669;BME280;19201;55.712;37.490;2022-09-03T04:54:22;100398.28;;;7.39;79.14
31669;BME280;19201;55.712;37.490;2022-09-03T04:56:47;100388.16;;;7.46;79.39
31669;BME280;19201;55.712;37.490;2022-09-03T04:59:14;100401.84;;;7.51;79.03
31669;BME280;19201;55.712;37.490;2022-09-03T05:01:39;100395.47;;;7.57;78.62
31669;BME280;19201;55.712;37.490;2022-09-03T05:04:06;100400.78;;;7.64;78.74
31669;BME280;19201;55.712;37.490;2022-09-03T05:06:33;100403.47;;;7.64;78.55
31669;BME280;19201;55.712;37.490;2022-09-03T05:09:00;100404.19;;;7.71;78.49
31669;BME280;19201;55.712;37.490;2022-09-03T05:11:26;100408.22;;;7.80;77.99
31669;BME280;19201;55.712;37.490;2022-09-03T05:13:54;100400.56;;;7.89;77.83
31669;BME280;19201;55.712;37.490;2022-09-03T05:16:21;100407.88;;;8.00;77.87
31669;BME280;19201;55.712;37.490;2022-09-03T05:18:51;100411.53;;;8.06;77.45
31669;BME280;19201;55.712;37.490;2022-09-03T05:21:17;100411.75;;;8.05;76.98
31669;BME280;19201;55.712;37.490;2022-09-03T05:23:47;100416.22;;;8.11;76.91
31669;BME280;19201;55.712;37.490;2022-09-03T05:26:17;100412.22;;;8.13;76.81
31669;BME280;19201;55.712;37.490;2022-09-03T05:28:44;100420.81;;;8.22;77.13
31669;BME280;19201;55.712;37.490;2022-09-03T05:31:20;100422.78;;;8.39;76.92
31669;BME280;19201;55.712;37.490;2022-09-03T05:33:48;100420.44;;;8.42;76.56
31669;BME280;19201;55.712;37.490;2022-09-03T05:36:17;100416.06;;;8.53;76.21
31669;BME280;19201;55.712;37.490;2022-09-03T05:38:43;100428.34;;;8.56;75.80
31669;BME280;19201;55.712;37.490;2022-09-03T05:41:11;100426.06;;;8.64;76.09
31669;BME280;19201;55.712;37.490;2022-09-03T05:43:37;100431.44;;;8.76;75.70
31669;BME280;19201;55.712;37.490;2022-09-03T05:46:08;100428.94;;;8.86;75.26
31669;BME280;19201;55.712;37.490;2022-09-03T05:48:37;100439.09;;;8.91;74.90
31669;BME280;19201;55.712;37.490;2022-09-03T05:51:09;100441.75;;;9.03;74.61
31669;BME280;19201;55.712;37.490;2022-09-03T05:53:37;100437.88;;;9.28;73.57
31669;BME280;19201;55.712;37.490;2022-09-03T05:56:06;100434.47;;;9.66;73.15
31669;BME280;19201;55.712;37.490;2022-09-03T05:58:34;100435.25;;;10.01;71.29
31669;BME280;19201;55.712;37.490;2022-09-03T06:01:11;100438.47;;;10.54;70.63
31669;BME280;19201;55.712;37.490;2022-09-03T06:03:38;100441.66;;;11.44;66.64
31669;BME280;19201;55.712;37.490;2022-09-03T06:06:04;100431.84;;;12.66;62.90
31669;BME280;19201;55.712;37.490;2022-09-03T06:08:31;100429.81;;;14.49;56.98
31669;BME280;19201;55.712;37.490;2022-09-03T06:10:58;100443.91;;;16.06;53.07
31669;BME280;19201;55.712;37.490;2022-09-03T06:13:24;100426.88;;;17.25;48.74
31669;BME280;19201;55.712;37.490;2022-09-03T06:15:49;100428.38;;;18.99;44.90
31669;BME280;19201;55.712;37.490;2022-09-03T06:18:15;100442.13;;;19.50;43.95
31669;BME280;19201;55.712;37.490;2022-09-03T06:20:40;100439.53;;;20.61;41.41
31669;BME280;19201;55.712;37.490;2022-09-03T06:23:06;100445.44;;;20.69;40.95
31669;BME280;19201;55.712;37.490;2022-09-03T06:25:31;100450.69;;;20.96;40.58
31669;BME280;19201;55.712;37.490;2022-09-03T06:27:57;100454.16;;;21.37;39.40
31669;BME280;19201;55.712;37.490;2022-09-03T06:30:23;100453.50;;;21.93;39.02
31669;BME280;19201;55.712;37.490;2022-09-03T06:32:51;100457.22;;;21.88;37.87
31669;BME280;19201;55.712;37.490;2022-09-03T06:35:17;100447.94;;;22.49;37.27
31669;BME280;19201;55.712;37.490;2022-09-03T06:37:42;100454.44;;;22.53;36.74
31669;BME280;19201;55.712;37.490;2022-09-03T06:40:09;100458.69;;;23.73;35.42
31669;BME280;19201;55.712;37.490;2022-09-03T06:42:40;100455.84;;;25.14;33.54
31669;BME280;19201;55.712;37.490;2022-09-03T06:45:09;100457.03;;;25.98;32.79
31669;BME280;19201;55.712;37.490;2022-09-03T06:47:35;100468.34;;;25.33;31.95
31669;BME280;19201;55.712;37.490;2022-09-03T06:50:01;100459.19;;;25.61;31.93
31669;BME280;19201;55.712;37.490;2022-09-03T06:52:27;100461.13;;;26.01;31.12
31669;BME280;19201;55.712;37.490;2022-09-03T06:54:54;100461.94;;;25.73;30.88
31669;BME280;19201;55.712;37.490;2022-09-03T06:57:19;100465.03;;;25.56;31.14
31669;BME280;19201;55.712;37.490;2022-09-03T06:59:45;100461.00;;;25.97;30.50
31669;BME280;19201;55.712;37.490;2022-09-03T07:02:11;100463.97;;;24.33;31.82
31669;BME280;19201;55.712;37.490;2022-09-03T07:04:36;100466.03;;;25.23;31.47
31669;BME280;19201;55.712;37.490;2022-09-03T07:07:02;100458.50;;;27.04;29.53
31669;BME280;19201;55.712;37.490;2022-09-03T07:09:28;100458.03;;;27.77;27.98
31669;BME280;19201;55.712;37.490;2022-09-03T07:11:53;100465.78;;;29.30;26.74
31669;BME280;19201;55.712;37.490;2022-09-03T07:14:20;100462.81;;;29.19;26.28
31669;BME280;19201;55.712;37.490;2022-09-03T07:16:47;100465.31;;;29.58;26.20
31669;BME280;19201;55.712;37.490;2022-09-03T07:19:14;100468.28;;;28.12;27.48
31669;BME280;19201;55.712;37.490;2022-09-03T07:21:40;100472.00;;;27.37;28.78
31669;BME280;19201;55.712;37.490;2022-09-03T07:24:07;100469.63;;;26.52;28.71
31669;BME280;19201;55.712;37.490;2022-09-03T07:26:36;100471.66;;;24.73;31.86
31669;BME280;19201;55.712;37.490;2022-09-03T07:29:03;100476.28;;;24.94;31.11
31669;BME280;19201;55.712;37.490;2022-09-03T07:31:31;100474.38;;;25.23;31.62
31669;BME280;19201;55.712;37.490;2022-09-03T07:34:02;100471.22;;;25.77;30.08
31669;BME280;19201;55.712;37.490;2022-09-03T07:36:30;100466.84;;;30.23;28.44
31669;BME280;19201;55.712;37.490;2022-09-03T07:38:57;100466.84;;;30.23;26.04
31669;BME280;19201;55.712;37.490;2022-09-03T07:41:24;100462.91;;;30.31;25.59
31669;BME280;19201;55.712;37.490;2022-09-03T07:43:50;100460.84;;;27.77;27.42
31669;BME280;19201;55.712;37.490;2022-09-03T07:46:24;100474.91;;;28.03;28.08
31669;BME280;19201;55.712;37.490;2022-09-03T07:48:53;100463.44;;;26.75;29.27
31669;BME280;19201;55.712;37.490;2022-09-03T07:51:20;100462.59;;;27.46;28.79
31669;BME280;19201;55.712;37.490;2022-09-03T07:53:47;100461.31;;;28.71;27.16
31669;BME280;19201;55.712;37.490;2022-09-03T07:56:13;100464.66;;;28.81;27.01
31669;BME280;19201;55.712;37.490;2022-09-03T07:58:40;100466.50;;;28.46;26.82
31669;BME280;19201;55.712;37.490;2022-09-03T08:01:11;100466.84;;;29.52;26.49
31669;BME280;19201;55.712;37.490;2022-09-03T08:03:50;100469.41;;;30.91;25.68
31669;BME280;19201;55.712;37.490;2022-09-03T08:06:17;100452.47;;;30.80;24.79
31669;BME280;19201;55.712;37.490;2022-09-03T08:08:43;100443.72;;;30.89;24.07
31669;BME280;19201;55.712;37.490;2022-09-03T08:11:17;100460.22;;;31.75;24.37
31669;BME280;19201;55.712;37.490;2022-09-03T08:13:58;100458.91;;;34.20;23.66
31669;BME280;19201;55.712;37.490;2022-09-03T08:16:30;100469.34;;;33.52;22.61
31669;BME280;19201;55.712;37.490;2022-09-03T08:18:56;100447.00;;;32.87;23.10
31669;BME280;19201;55.712;37.490;2022-09-03T08:21:23;100458.94;;;30.36;25.13
31669;BME280;19201;55.712;37.490;2022-09-03T08:23:51;100455.44;;;29.07;26.38
31669;BME280;19201;55.712;37.490;2022-09-03T08:26:20;100463.47;;;30.48;25.30
31669;BME280;19201;55.712;37.490;2022-09-03T08:28:46;100448.50;;;30.81;24.30
31669;BME280;19201;55.712;37.490;2022-09-03T08:31:20;100455.88;;;32.28;24.00
31669;BME280;19201;55.712;37.490;2022-09-03T08:33:51;100453.88;;;32.36;23.60
31669;BME280;19201;55.712;37.490;2022-09-03T08:36:19;100445.03;;;29.34;25.61
31669;BME280;19201;55.712;37.490;2022-09-03T08:38:47;100456.19;;;29.31;25.43
31669;BME280;19201;55.712;37.490;2022-09-03T08:44:24;100452.09;;;26.52;29.36
31669;BME280;19201;55.712;37.490;2022-09-03T08:55:30;100441.03;;;22.16;34.70
31669;BME280;19201;55.712;37.490;2022-09-03T08:58:14;100438.22;;;22.72;33.34
31669;BME280;19201;55.712;37.490;2022-09-03T09:09:16;100437.09;;;28.56;26.84
31669;BME280;19201;55.712;37.490;2022-09-03T09:20:48;100436.72;;;25.98;28.53
31669;BME280;19201;55.712;37.490;2022-09-03T09:23:27;100432.44;;;28.40;25.43
31669;BME280;19201;55.712;37.490;2022-09-03T09:25:56;100429.00;;;30.47;22.93
31669;BME280;19201;55.712;37.490;2022-09-03T09:28:29;100425.69;;;30.90;23.09
31669;BME280;19201;55.712;37.490;2022-09-03T09:31:00;100414.28;;;30.61;22.36
31669;BME280;19201;55.712;37.490;2022-09-03T09:33:30;100425.75;;;31.01;22.26
31669;BME280;19201;55.712;37.490;2022-09-03T09:36:00;100422.69;;;31.28;21.65
31669;BME280;19201;55.712;37.490;2022-09-03T09:38:33;100423.50;;;31.32;21.95
31669;BME280;19201;55.712;37.490;2022-09-03T09:41:11;100416.44;;;31.81;21.66
31669;BME280;19201;55.712;37.490;2022-09-03T09:43:38;100420.28;;;31.37;21.45
31669;BME280;19201;55.712;37.490;2022-09-03T09:46:33;100422.28;;;33.46;20.33
31669;BME280;19201;55.712;37.490;2022-09-03T09:48:59;100413.81;;;31.26;21.21
31669;BME280;19201;55.712;37.490;2022-09-03T09:51:27;100418.28;;;31.34;21.30
31669;BME280;19201;55.712;37.490;2022-09-03T09:54:14;100427.81;;;34.27;20.44
31669;BME280;19201;55.712;37.490;2022-09-03T09:56:45;100419.41;;;33.56;19.69
31669;BME280;19201;55.712;37.490;2022-09-03T09:59:12;100418.38;;;33.96;19.51
31669;BME280;19201;55.712;37.490;2022-09-03T10:01:44;100408.03;;;34.72;19.69
31669;BME280;19201;55.712;37.490;2022-09-03T10:04:23;100404.56;;;35.61;19.83
31669;BME280;19201;55.712;37.490;2022-09-03T10:07:00;100404.28;;;35.83;19.00
31669;BME280;19201;55.712;37.490;2022-09-03T10:09:29;100404.00;;;32.62;20.24
31669;BME280;19201;55.712;37.490;2022-09-03T10:14:43;100412.78;;;29.48;22.92
31669;BME280;19201;55.712;37.490;2022-09-03T10:17:28;100407.00;;;27.21;25.69
31669;BME280;19201;55.712;37.490;2022-09-03T10:20:03;100411.75;;;24.51;28.50
31669;BME280;19201;55.712;37.490;2022-09-03T10:22:59;100406.22;;;23.47;30.06
31669;BME280;19201;55.712;37.490;2022-09-03T10:25:33;100410.19;;;22.35;30.79
